createdAt,value
2022-09-30T00:00:43.489Z,99182.95
2022-09-30T00:01:47.382Z,99197.48
2022-09-30T00:02:49.338Z,99192.25
2022-09-30T00:03:54.957Z,99198.42
2022-09-30T00:04:56.918Z,99199.36
2022-09-30T00:06:04.356Z,99193.93
2022-09-30T00:07:04.107Z,99195.80
2022-09-30T00:08:06.022Z,99203.45
2022-09-30T00:09:08.509Z,99202.09
2022-09-30T00:10:10.975Z,99199.78
2022-09-30T00:11:16.531Z,99194.55
2022-09-30T00:12:19.367Z,99200.41
2022-09-30T00:13:21.094Z,99204.39
2022-09-30T00:14:23.436Z,99195.17
2022-09-30T00:15:25.237Z,99196.23
2022-09-30T00:16:30.461Z,99197.05
2022-09-30T00:17:32.758Z,99203.97
2022-09-30T00:18:34.751Z,99203.14
2022-09-30T00:19:37.725Z,99192.87
2022-09-30T00:20:40.890Z,99202.20
2022-09-30T00:21:44.298Z,99199.05
2022-09-30T00:22:46.039Z,99201.86
2022-09-30T00:23:47.789Z,99201.66
2022-09-30T00:24:49.834Z,99202.60
2022-09-30T00:26:01.153Z,99197.25
2022-09-30T00:27:03.270Z,99199.87
2022-09-30T00:28:05.167Z,99201.66
2022-09-30T00:29:07.460Z,99201.03
2022-09-30T00:30:10.164Z,99197.36
2022-09-30T00:31:15.194Z,99197.16
2022-09-30T00:32:17.370Z,99200.22
2022-09-30T00:33:19.204Z,99197.88
2022-09-30T00:34:20.951Z,99185.09
2022-09-30T00:35:22.801Z,99185.09
2022-09-30T00:36:24.711Z,99192.51
2022-09-30T00:37:26.971Z,99190.33
2022-09-30T00:38:29.357Z,99191.80
2022-09-30T00:39:31.371Z,99189.89
2022-09-30T00:40:33.929Z,99189.89
2022-09-30T00:41:36.029Z,99209.14
2022-09-30T00:42:39.989Z,99206.23
2022-09-30T00:43:44.695Z,99207.91
2022-09-30T00:44:55.519Z,99205.34
2022-09-30T00:45:59.882Z,99207.41
2022-09-30T00:47:02.090Z,99207.02
2022-09-30T00:48:13.186Z,99201.70
2022-09-30T00:49:23.045Z,99207.78
2022-09-30T00:50:38.139Z,99211.02
2022-09-30T00:51:47.350Z,99206.78
2022-09-30T00:54:12.350Z,99213.70
2022-09-30T00:55:17.862Z,99222.11
2022-09-30T00:56:23.667Z,99219.42
2022-09-30T00:57:29.282Z,99217.11
2022-09-30T00:58:40.619Z,99226.23
2022-09-30T00:59:48.151Z,99220.55
2022-09-30T01:00:50.909Z,99216.70
2022-09-30T01:01:53.868Z,99221.94
2022-09-30T01:02:56.266Z,99216.87
2022-09-30T01:04:01.783Z,99217.64
2022-09-30T01:05:04.354Z,99209.14
2022-09-30T01:06:09.273Z,99220.85
2022-09-30T01:07:12.399Z,99222.50
2022-09-30T01:08:15.838Z,99229.55
2022-09-30T01:09:18.719Z,99224.55
2022-09-30T01:10:20.819Z,99223.61
2022-09-30T01:11:22.563Z,99231.76
2022-09-30T01:12:26.020Z,99220.26
2022-09-30T01:13:30.342Z,99231.47
2022-09-30T01:14:32.601Z,99229.03
2022-09-30T01:16:06.246Z,99235.38
2022-09-30T01:17:25.178Z,99227.97
2022-09-30T01:18:33.593Z,99234.59
2022-09-30T01:19:53.698Z,99238.21
2022-09-30T01:21:33.375Z,99229.03
2022-09-30T01:22:50.661Z,99238.45
2022-09-30T01:24:08.008Z,99237.52
2022-09-30T01:25:16.530Z,99247.45
2022-09-30T01:26:43.436Z,99235.53
2022-09-30T01:28:08.471Z,99242.64
2022-09-30T01:29:33.788Z,99237.41
2022-09-30T01:31:00.819Z,99236.03
2022-09-30T01:32:15.643Z,99230.73
2022-09-30T01:33:39.439Z,99233.41
2022-09-30T01:34:47.861Z,99235.70
2022-09-30T01:36:02.525Z,99240.97
2022-09-30T01:37:08.113Z,99238.05
2022-09-30T01:38:14.088Z,99235.43
2022-09-30T01:39:36.108Z,99229.66
2022-09-30T01:41:03.339Z,99237.67
2022-09-30T01:42:43.984Z,99232.43
2022-09-30T01:44:12.553Z,99226.34
2022-09-30T01:45:26.870Z,99232.43
2022-09-30T01:46:45.522Z,99231.38
2022-09-30T01:48:00.004Z,99231.81
2022-09-30T01:49:08.519Z,99227.09
2022-09-30T01:50:23.344Z,99233.69
2022-09-30T01:51:41.043Z,99231.61
2022-09-30T01:52:52.608Z,99234.73
2022-09-30T01:55:26.740Z,99229.27
2022-09-30T01:58:00.812Z,99238.48
2022-09-30T01:59:15.483Z,99234.42
2022-09-30T02:00:18.887Z,99231.17
2022-09-30T02:01:30.158Z,99235.14
2022-09-30T02:02:38.482Z,99227.52
2022-09-30T02:03:50.212Z,99228.46
2022-09-30T02:04:56.769Z,99233.50
2022-09-30T02:06:12.103Z,99238.81
2022-09-30T02:07:17.663Z,99236.83
2022-09-30T02:08:23.169Z,99235.26
2022-09-30T02:09:34.821Z,99240.60
2022-09-30T02:10:41.098Z,99239.11
2022-09-30T02:11:44.100Z,99245.72
2022-09-30T02:12:52.361Z,99240.70
2022-09-30T02:14:13.150Z,99236.95
2022-09-30T02:15:18.787Z,99238.71
2022-09-30T02:16:27.043Z,99237.26
2022-09-30T02:17:35.826Z,99234.75
2022-09-30T02:18:49.843Z,99243.95
2022-09-30T02:20:01.177Z,99236.41
2022-09-30T02:21:06.703Z,99239.25
2022-09-30T02:22:18.215Z,99244.80
2022-09-30T02:23:29.207Z,99240.39
2022-09-30T02:24:34.837Z,99240.91
2022-09-30T02:25:40.319Z,99237.86
2022-09-30T02:26:46.014Z,99236.38
2022-09-30T02:27:52.092Z,99237.67
2022-09-30T02:28:57.592Z,99240.59
2022-09-30T02:30:01.305Z,99240.79
2022-09-30T02:31:06.701Z,99230.52
2022-09-30T02:32:15.286Z,99237.74
2022-09-30T02:33:20.889Z,99231.76
2022-09-30T02:34:36.007Z,99235.03
2022-09-30T02:35:47.716Z,99236.88
2022-09-30T02:36:55.840Z,99236.57
2022-09-30T02:39:17.683Z,99242.45
2022-09-30T02:40:23.599Z,99243.91
2022-09-30T02:41:28.083Z,99241.94
2022-09-30T02:42:30.959Z,99241.19
2022-09-30T02:43:34.108Z,99242.03
2022-09-30T02:44:37.191Z,99242.67
2022-09-30T02:46:04.197Z,99244.98
2022-09-30T02:48:41.978Z,99240.13
2022-09-30T02:49:53.301Z,99234.50
2022-09-30T02:51:08.232Z,99241.53
2022-09-30T02:52:13.843Z,99246.14
2022-09-30T02:53:28.107Z,99245.80
2022-09-30T02:54:33.613Z,99246.45
2022-09-30T02:56:11.659Z,99251.38
2022-09-30T02:57:39.758Z,99247.70
2022-09-30T02:58:42.900Z,99247.08
2022-09-30T02:59:50.934Z,99248.55
2022-09-30T03:00:53.884Z,99249.38
2022-09-30T03:01:56.290Z,99244.58
2022-09-30T03:03:14.238Z,99245.40
2022-09-30T03:04:19.745Z,99247.19
2022-09-30T03:05:22.965Z,99250.02
2022-09-30T03:06:25.413Z,99247.70
2022-09-30T03:07:27.405Z,99255.24
2022-09-30T03:08:29.412Z,99253.25
2022-09-30T03:09:32.998Z,99251.06
2022-09-30T03:10:35.977Z,99245.20
2022-09-30T03:11:38.026Z,99247.07
2022-09-30T03:12:55.454Z,99246.56
2022-09-30T03:14:27.648Z,99250.55
2022-09-30T03:15:38.991Z,99254.09
2022-09-30T03:17:04.499Z,99258.39
2022-09-30T03:18:39.998Z,99255.47
2022-09-30T03:20:14.119Z,99248.76
2022-09-30T03:21:53.251Z,99251.27
2022-09-30T03:23:04.557Z,99251.27
2022-09-30T03:24:26.785Z,99249.38
2022-09-30T03:25:32.303Z,99254.19
2022-09-30T03:27:10.200Z,99263.99
2022-09-30T03:28:32.523Z,99261.91
2022-09-30T03:29:47.269Z,99253.52
2022-09-30T03:30:58.970Z,99255.83
2022-09-30T03:32:17.106Z,99258.75
2022-09-30T03:33:25.358Z,99261.91
2022-09-30T03:34:40.370Z,99256.59
2022-09-30T03:36:00.790Z,99256.78
2022-09-30T03:37:18.195Z,99268.39
2022-09-30T03:38:40.478Z,99265.45
2022-09-30T03:39:59.466Z,99267.77
2022-09-30T03:41:19.618Z,99270.07
2022-09-30T03:42:41.660Z,99272.34
2022-09-30T03:43:59.486Z,99270.88
2022-09-30T03:45:20.500Z,99276.34
2022-09-30T03:46:26.150Z,99272.55
2022-09-30T03:47:31.940Z,99270.55
2022-09-30T03:48:36.434Z,99263.31
2022-09-30T03:49:55.287Z,99266.67
2022-09-30T03:50:59.728Z,99272.08
2022-09-30T03:52:07.076Z,99273.52
2022-09-30T03:53:11.986Z,99274.82
2022-09-30T03:54:14.556Z,99273.58
2022-09-30T03:55:17.905Z,99283.97
2022-09-30T03:57:35.897Z,99275.86
2022-09-30T03:58:41.320Z,99283.38
2022-09-30T03:59:43.478Z,99287.97
2022-09-30T04:00:49.206Z,99285.64
2022-09-30T04:01:51.741Z,99290.44
2022-09-30T04:02:57.660Z,99285.93
2022-09-30T04:03:57.509Z,99284.53
2022-09-30T04:04:59.217Z,99290.03
2022-09-30T04:06:01.102Z,99289.81
2022-09-30T04:07:02.842Z,99291.95
2022-09-30T04:08:04.878Z,99297.23
2022-09-30T04:09:07.795Z,99292.48
2022-09-30T04:10:10.939Z,99291.42
2022-09-30T04:11:13.047Z,99298.63
2022-09-30T04:12:15.393Z,99296.95
2022-09-30T04:13:17.221Z,99300.92
2022-09-30T04:14:19.094Z,99293.55
2022-09-30T04:15:21.282Z,99293.84
2022-09-30T04:16:23.472Z,99300.30
2022-09-30T04:17:25.597Z,99304.81
2022-09-30T04:18:27.482Z,99297.89
2022-09-30T04:19:29.476Z,99298.02
2022-09-30T04:20:32.900Z,99302.92
2022-09-30T04:21:34.937Z,99306.04
2022-09-30T04:22:37.278Z,99302.96
2022-09-30T04:23:41.427Z,99304.52
2022-09-30T04:24:43.418Z,99310.34
2022-09-30T04:25:53.771Z,99317.59
2022-09-30T04:26:55.601Z,99314.39
2022-09-30T04:27:57.469Z,99319.42
2022-09-30T04:28:59.350Z,99319.88
2022-09-30T04:30:01.233Z,99316.08
2022-09-30T04:31:05.841Z,99328.03
2022-09-30T04:32:08.717Z,99332.50
2022-09-30T04:33:10.784Z,99335.48
2022-09-30T04:34:13.219Z,99338.70
2022-09-30T04:35:15.583Z,99331.28
2022-09-30T04:36:18.601Z,99348.17
2022-09-30T04:37:20.526Z,99343.14
2022-09-30T04:38:24.535Z,99343.77
2022-09-30T04:39:26.433Z,99338.27
2022-09-30T04:40:28.228Z,99344.20
2022-09-30T04:41:30.081Z,99346.63
2022-09-30T04:42:31.988Z,99342.53
2022-09-30T04:43:34.252Z,99342.95
2022-09-30T04:44:36.324Z,99334.98
2022-09-30T04:45:41.758Z,99342.75
2022-09-30T04:46:43.795Z,99344.81
2022-09-30T04:47:45.430Z,99345.32
2022-09-30T04:48:48.051Z,99345.32
2022-09-30T04:49:50.138Z,99345.02
2022-09-30T04:50:51.942Z,99350.69
2022-09-30T04:51:53.987Z,99344.01
2022-09-30T04:52:56.467Z,99344.01
2022-09-30T04:53:58.456Z,99341.08
2022-09-30T04:55:00.360Z,99336.89
2022-09-30T04:56:03.047Z,99336.84
2022-09-30T04:57:04.948Z,99334.52
2022-09-30T04:58:06.817Z,99333.90
2022-09-30T04:59:09.056Z,99336.82
2022-09-30T05:00:12.124Z,99333.96
2022-09-30T05:01:16.432Z,99342.56
2022-09-30T05:02:19.499Z,99339.73
2022-09-30T05:03:21.490Z,99337.99
2022-09-30T05:04:23.747Z,99333.52
2022-09-30T05:05:25.756Z,99337.44
2022-09-30T05:06:28.283Z,99344.98
2022-09-30T05:07:31.097Z,99340.85
2022-09-30T05:08:34.356Z,99341.97
2022-09-30T05:09:36.761Z,99341.52
2022-09-30T05:10:38.633Z,99343.60
2022-09-30T05:11:41.019Z,99345.77
2022-09-30T05:12:43.497Z,99345.08
2022-09-30T05:13:46.497Z,99348.30
2022-09-30T05:14:48.426Z,99348.30
2022-09-30T05:15:50.412Z,99350.59
2022-09-30T05:16:52.391Z,99350.48
2022-09-30T05:17:55.192Z,99350.39
2022-09-30T05:18:56.914Z,99354.34
2022-09-30T05:20:00.009Z,99353.72
2022-09-30T05:21:02.985Z,99355.02
2022-09-30T05:22:04.933Z,99357.40
2022-09-30T05:23:06.606Z,99353.16
2022-09-30T05:24:08.453Z,99350.48
2022-09-30T05:25:11.346Z,99350.56
2022-09-30T05:26:14.416Z,99352.29
2022-09-30T05:27:17.688Z,99352.29
2022-09-30T05:28:20.147Z,99354.46
2022-09-30T05:29:22.275Z,99355.08
2022-09-30T05:30:24.352Z,99355.53
2022-09-30T05:31:26.472Z,99361.10
2022-09-30T05:32:28.686Z,99363.23
2022-09-30T05:33:31.169Z,99359.13
2022-09-30T05:34:33.383Z,99364.00
2022-09-30T05:35:35.815Z,99361.99
2022-09-30T05:36:37.953Z,99364.38
2022-09-30T05:37:40.897Z,99362.05
2022-09-30T05:38:42.957Z,99369.37
2022-09-30T05:39:45.011Z,99366.30
2022-09-30T05:40:50.032Z,99364.74
2022-09-30T05:41:52.108Z,99355.91
2022-09-30T05:42:56.390Z,99355.23
2022-09-30T05:43:58.252Z,99353.80
2022-09-30T05:45:00.871Z,99353.80
2022-09-30T05:46:02.786Z,99356.48
2022-09-30T05:47:05.457Z,99356.48
2022-09-30T05:48:08.203Z,99352.73
2022-09-30T05:49:10.452Z,99349.56
2022-09-30T05:50:12.883Z,99356.03
2022-09-30T05:51:14.928Z,99354.81
2022-09-30T05:52:16.909Z,99360.55
2022-09-30T05:53:19.117Z,99356.28
2022-09-30T05:54:21.544Z,99357.44
2022-09-30T05:55:24.946Z,99358.63
2022-09-30T05:56:27.137Z,99370.47
2022-09-30T05:57:29.006Z,99376.28
2022-09-30T05:58:30.979Z,99373.92
2022-09-30T05:59:33.081Z,99378.63
2022-09-30T06:00:34.996Z,99375.44
2022-09-30T06:01:37.942Z,99380.03
2022-09-30T06:02:39.923Z,99374.50
2022-09-30T06:03:43.676Z,99375.89
2022-09-30T06:04:45.662Z,99378.63
2022-09-30T06:05:49.087Z,99380.92
2022-09-30T06:06:51.121Z,99385.64
2022-09-30T06:07:53.047Z,99380.48
2022-09-30T06:08:55.301Z,99387.98
2022-09-30T06:09:57.023Z,99385.44
2022-09-30T06:10:58.883Z,99380.19
2022-09-30T06:12:01.096Z,99380.19
2022-09-30T06:13:04.773Z,99394.56
2022-09-30T06:14:06.670Z,99396.90
2022-09-30T06:15:09.298Z,99397.25
2022-09-30T06:16:12.569Z,99402.44
2022-09-30T06:17:14.558Z,99398.14
2022-09-30T06:18:17.871Z,99402.70
2022-09-30T06:19:20.388Z,99406.50
2022-09-30T06:20:23.133Z,99406.50
2022-09-30T06:21:25.879Z,99403.96
2022-09-30T06:22:27.586Z,99411.63
2022-09-30T06:23:31.775Z,99409.73
2022-09-30T06:24:33.526Z,99414.86
2022-09-30T06:25:35.254Z,99414.36
2022-09-30T06:26:37.369Z,99412.45
2022-09-30T06:27:39.280Z,99410.77
2022-09-30T06:28:41.733Z,99421.44
2022-09-30T06:29:43.543Z,99414.72
2022-09-30T06:30:46.575Z,99419.08
2022-09-30T06:31:48.834Z,99408.18
2022-09-30T06:32:51.403Z,99417.64
2022-09-30T06:33:53.927Z,99415.95
2022-09-30T06:34:55.837Z,99414.04
2022-09-30T06:35:58.969Z,99403.79
2022-09-30T06:37:00.806Z,99403.79
2022-09-30T06:38:02.677Z,99424.80
2022-09-30T06:39:04.739Z,99430.66
2022-09-30T06:40:07.856Z,99434.45
2022-09-30T06:41:09.815Z,99423.53
2022-09-30T06:42:12.458Z,99420.76
2022-09-30T06:43:14.880Z,99423.95
2022-09-30T06:44:16.684Z,99413.54
2022-09-30T06:45:30.099Z,99416.20
2022-09-30T06:46:29.815Z,99418.45
2022-09-30T06:47:27.709Z,99411.98
2022-09-30T06:48:37.511Z,99412.31
2022-09-30T06:49:43.955Z,99416.20
2022-09-30T06:50:37.517Z,99416.75
2022-09-30T06:51:39.514Z,99424.19
2022-09-30T06:52:41.267Z,99416.29
2022-09-30T06:53:43.108Z,99417.26
2022-09-30T06:54:46.090Z,99420.75
2022-09-30T06:55:48.360Z,99432.80
2022-09-30T06:56:50.468Z,99427.86
2022-09-30T06:57:53.371Z,99435.02
2022-09-30T06:58:55.299Z,99437.86
2022-09-30T06:59:58.019Z,99438.09
2022-09-30T07:01:02.363Z,99436.05
2022-09-30T07:02:04.543Z,99446.54
2022-09-30T07:03:07.011Z,99448.87
2022-09-30T07:04:10.691Z,99448.20
2022-09-30T07:05:12.782Z,99453.75
2022-09-30T07:06:15.036Z,99453.81
2022-09-30T07:07:16.895Z,99446.13
2022-09-30T07:08:19.189Z,99444.41
2022-09-30T07:09:21.057Z,99450.48
2022-09-30T07:10:23.210Z,99445.72
2022-09-30T07:11:25.173Z,99451.05
2022-09-30T07:12:27.410Z,99451.05
2022-09-30T07:13:30.165Z,99455.59
2022-09-30T07:14:32.311Z,99463.14
2022-09-30T07:15:34.224Z,99457.09
2022-09-30T07:16:36.566Z,99454.16
2022-09-30T07:17:38.344Z,99450.47
2022-09-30T07:18:40.782Z,99448.30
2022-09-30T07:19:42.498Z,99455.23
2022-09-30T07:20:52.862Z,99454.75
2022-09-30T07:21:54.929Z,99464.33
2022-09-30T07:22:57.265Z,99455.52
2022-09-30T07:23:59.347Z,99448.84
2022-09-30T07:25:03.327Z,99451.47
2022-09-30T07:26:05.561Z,99451.61
2022-09-30T07:27:07.816Z,99448.44
2022-09-30T07:28:09.710Z,99453.83
2022-09-30T07:29:13.063Z,99455.62
2022-09-30T07:30:25.793Z,99458.34
2022-09-30T07:31:39.290Z,99463.25
2022-09-30T07:32:27.721Z,99452.52
2022-09-30T07:33:29.681Z,99455.97
2022-09-30T07:34:31.943Z,99450.70
2022-09-30T07:35:34.183Z,99457.76
2022-09-30T07:36:38.626Z,99462.80
2022-09-30T07:37:41.067Z,99465.63
2022-09-30T07:38:42.865Z,99471.48
2022-09-30T07:39:46.641Z,99462.05
2022-09-30T07:41:00.599Z,99462.05
2022-09-30T07:42:03.101Z,99467.70
2022-09-30T07:43:08.612Z,99469.94
2022-09-30T07:44:13.051Z,99474.71
2022-09-30T07:45:15.537Z,99474.85
2022-09-30T07:46:25.049Z,99479.23
2022-09-30T07:47:27.034Z,99479.26
2022-09-30T07:48:28.976Z,99475.44
2022-09-30T07:49:30.719Z,99477.84
2022-09-30T07:50:32.811Z,99478.53
2022-09-30T07:51:38.273Z,99476.39
2022-09-30T07:52:40.888Z,99478.90
2022-09-30T07:53:46.221Z,99482.84
2022-09-30T07:54:50.517Z,99481.50
2022-09-30T07:55:51.894Z,99487.25
2022-09-30T07:57:11.157Z,99484.13
2022-09-30T07:57:59.432Z,99481.10
2022-09-30T07:59:01.829Z,99483.73
2022-09-30T08:00:22.971Z,99471.83
2022-09-30T08:01:10.888Z,99471.83
2022-09-30T08:02:16.501Z,99480.91
2022-09-30T08:03:18.511Z,99487.84
2022-09-30T08:04:22.030Z,99486.37
2022-09-30T08:05:24.370Z,99485.94
2022-09-30T08:06:28.694Z,99486.27
2022-09-30T08:07:30.945Z,99492.88
2022-09-30T08:08:35.029Z,99492.62
2022-09-30T08:09:37.487Z,99495.15
2022-09-30T08:10:40.190Z,99491.69
2022-09-30T08:11:42.626Z,99495.50
2022-09-30T08:12:44.633Z,99496.95
2022-09-30T08:13:56.662Z,99496.69
2022-09-30T08:14:58.536Z,99496.47
2022-09-30T08:16:00.715Z,99494.78
2022-09-30T08:17:02.724Z,99504.69
2022-09-30T08:18:04.651Z,99499.06
2022-09-30T08:19:06.745Z,99500.51
2022-09-30T08:20:13.104Z,99501.95
2022-09-30T08:21:13.097Z,99506.98
2022-09-30T08:22:15.082Z,99497.16
2022-09-30T08:23:17.063Z,99502.16
2022-09-30T08:24:20.033Z,99497.16
2022-09-30T08:25:22.744Z,99497.16
2022-09-30T08:26:24.931Z,99505.05
2022-09-30T08:27:26.718Z,99497.87
2022-09-30T08:28:31.063Z,99506.72
2022-09-30T08:29:53.804Z,99505.14
2022-09-30T08:30:40.599Z,99509.45
2022-09-30T08:31:46.164Z,99507.31
2022-09-30T08:32:48.068Z,99507.67
2022-09-30T08:33:57.824Z,99509.08
2022-09-30T08:34:59.774Z,99500.81
2022-09-30T08:36:11.563Z,99503.77
2022-09-30T08:37:13.701Z,99495.77
2022-09-30T08:38:15.435Z,99496.45
2022-09-30T08:39:19.098Z,99505.16
2022-09-30T08:40:24.794Z,99498.05
2022-09-30T08:41:59.746Z,99497.77
2022-09-30T08:43:08.155Z,99503.38
2022-09-30T08:44:24.589Z,99509.62
2022-09-30T08:45:47.724Z,99520.52
2022-09-30T08:47:20.943Z,99518.08
2022-09-30T08:48:55.042Z,99512.25
2022-09-30T08:50:16.897Z,99507.97
2022-09-30T08:51:34.852Z,99510.23
2022-09-30T08:52:55.712Z,99512.86
2022-09-30T08:53:46.890Z,99504.84
2022-09-30T08:54:52.558Z,99511.16
2022-09-30T08:55:55.521Z,99515.45
2022-09-30T08:56:59.753Z,99514.49
2022-09-30T08:58:07.086Z,99518.44
2022-09-30T08:59:15.425Z,99513.20
2022-09-30T09:00:18.399Z,99522.98
2022-09-30T09:01:31.251Z,99514.34
2022-09-30T09:02:53.794Z,99508.93
2022-09-30T09:03:58.025Z,99517.88
2022-09-30T09:05:06.160Z,99510.42
2022-09-30T09:06:28.481Z,99511.59
2022-09-30T09:07:49.705Z,99514.16
2022-09-30T09:09:12.175Z,99513.92
2022-09-30T09:10:30.309Z,99508.20
2022-09-30T09:12:02.267Z,99516.18
2022-09-30T09:13:26.262Z,99519.91
2022-09-30T09:14:37.718Z,99514.44
2022-09-30T09:15:52.240Z,99523.61
2022-09-30T09:17:00.985Z,99523.02
2022-09-30T09:18:23.657Z,99522.06
2022-09-30T09:19:29.222Z,99519.64
2022-09-30T09:20:38.077Z,99527.23
2022-09-30T09:21:58.448Z,99527.88
2022-09-30T09:23:03.212Z,99533.32
2022-09-30T09:24:08.832Z,99531.44
2022-09-30T09:25:24.841Z,99532.50
2022-09-30T09:26:31.455Z,99525.28
2022-09-30T09:27:49.188Z,99532.44
2022-09-30T09:29:21.486Z,99530.63
2022-09-30T09:30:26.239Z,99537.39
2022-09-30T09:31:28.317Z,99539.16
2022-09-30T09:32:31.307Z,99534.19
2022-09-30T09:33:38.318Z,99536.20
2022-09-30T09:34:40.758Z,99543.16
2022-09-30T09:35:55.341Z,99541.64
2022-09-30T09:37:17.316Z,99542.63
2022-09-30T09:39:44.980Z,99540.86
2022-09-30T09:41:20.091Z,99537.88
2022-09-30T09:42:52.428Z,99539.52
2022-09-30T09:44:04.171Z,99541.20
2022-09-30T09:45:24.606Z,99548.67
2022-09-30T09:46:49.784Z,99546.09
2022-09-30T09:47:52.616Z,99546.00
2022-09-30T09:49:16.457Z,99546.05
2022-09-30T09:50:42.544Z,99551.64
2022-09-30T09:51:57.166Z,99550.54
2022-09-30T09:53:12.161Z,99547.51
2022-09-30T09:54:18.703Z,99552.83
2022-09-30T09:55:22.215Z,99555.67
2022-09-30T09:56:32.815Z,99550.36
2022-09-30T09:57:34.765Z,99553.52
2022-09-30T09:58:37.134Z,99554.05
2022-09-30T09:59:54.180Z,99548.77
2022-09-30T10:02:23.764Z,99542.72
2022-09-30T10:03:26.253Z,99553.23
2022-09-30T10:04:29.673Z,99558.27
2022-09-30T10:05:36.325Z,99556.92
2022-09-30T10:07:03.237Z,99545.55
2022-09-30T10:08:11.708Z,99552.22
2022-09-30T10:10:51.271Z,99552.32
2022-09-30T10:12:08.835Z,99554.78
2022-09-30T10:13:24.519Z,99551.15
2022-09-30T10:14:26.474Z,99553.53
2022-09-30T10:15:29.450Z,99554.67
2022-09-30T10:16:34.425Z,99552.03
2022-09-30T10:17:38.132Z,99558.10
2022-09-30T10:18:41.235Z,99555.61
2022-09-30T10:19:49.537Z,99552.00
2022-09-30T10:21:20.555Z,99562.13
2022-09-30T10:22:31.258Z,99557.31
2022-09-30T10:23:38.982Z,99560.20
2022-09-30T10:24:41.030Z,99563.98
2022-09-30T10:27:26.883Z,99556.83
2022-09-30T10:28:32.482Z,99557.59
2022-09-30T10:29:36.410Z,99557.56
2022-09-30T10:30:45.296Z,99565.16
2022-09-30T10:31:47.275Z,99559.87
2022-09-30T10:32:49.958Z,99564.05
2022-09-30T10:34:05.317Z,99564.91
2022-09-30T10:35:10.935Z,99562.31
2022-09-30T10:36:20.999Z,99561.80
2022-09-30T10:37:24.364Z,99557.66
2022-09-30T10:38:27.772Z,99562.39
2022-09-30T10:39:33.593Z,99555.18
2022-09-30T10:40:35.728Z,99559.20
2022-09-30T10:41:38.136Z,99566.83
2022-09-30T10:42:42.682Z,99572.36
2022-09-30T10:43:49.222Z,99568.05
2022-09-30T10:45:03.305Z,99569.44
2022-09-30T10:46:25.206Z,99566.12
2022-09-30T10:47:18.552Z,99563.50
2022-09-30T10:48:23.696Z,99570.25
2022-09-30T10:50:45.174Z,99561.01
2022-09-30T10:51:47.172Z,99562.39
2022-09-30T10:52:52.750Z,99565.36
2022-09-30T10:53:56.249Z,99568.84
2022-09-30T10:55:13.250Z,99569.97
2022-09-30T10:56:12.946Z,99570.12
2022-09-30T10:57:18.907Z,99573.63
2022-09-30T10:58:30.958Z,99568.89
2022-09-30T10:59:36.456Z,99569.48
2022-09-30T11:00:38.648Z,99570.30
2022-09-30T11:01:53.682Z,99570.43
2022-09-30T11:03:01.188Z,99576.13
2022-09-30T11:04:19.158Z,99568.88
2022-09-30T11:05:27.852Z,99573.34
2022-09-30T11:06:33.033Z,99568.63
2022-09-30T11:07:47.678Z,99574.75
2022-09-30T11:09:05.365Z,99576.55
2022-09-30T11:10:30.252Z,99577.55
2022-09-30T11:11:39.768Z,99574.20
2022-09-30T11:12:45.429Z,99577.81
2022-09-30T11:13:51.172Z,99569.63
2022-09-30T11:15:06.591Z,99584.78
2022-09-30T11:16:12.954Z,99581.44
2022-09-30T11:17:33.548Z,99575.58
2022-09-30T11:18:39.673Z,99578.23
2022-09-30T11:19:48.207Z,99584.48
2022-09-30T11:20:56.934Z,99582.55
2022-09-30T11:22:14.837Z,99588.13
2022-09-30T11:23:40.264Z,99583.95
2022-09-30T11:24:45.486Z,99585.89
2022-09-30T11:25:51.103Z,99599.79
2022-09-30T11:27:11.869Z,99596.47
2022-09-30T11:28:43.089Z,99592.29
2022-09-30T11:30:04.788Z,99596.04
2022-09-30T11:31:39.735Z,99601.47
2022-09-30T11:32:48.695Z,99595.05
2022-09-30T11:34:03.553Z,99599.22
2022-09-30T11:35:09.485Z,99598.92
2022-09-30T11:36:15.734Z,99599.63
2022-09-30T11:37:36.514Z,99593.05
2022-09-30T11:38:56.758Z,99600.99
2022-09-30T11:40:14.067Z,99598.34
2022-09-30T11:41:40.748Z,99595.85
2022-09-30T11:42:52.254Z,99596.70
2022-09-30T11:44:03.918Z,99599.75
2022-09-30T11:45:09.542Z,99601.42
2022-09-30T11:46:29.816Z,99599.88
2022-09-30T11:47:51.796Z,99606.53
2022-09-30T11:49:14.178Z,99603.47
2022-09-30T11:50:20.807Z,99594.67
2022-09-30T11:51:44.405Z,99605.56
2022-09-30T11:53:06.045Z,99606.53
2022-09-30T11:54:17.908Z,99598.88
2022-09-30T11:55:49.093Z,99601.39
2022-09-30T11:57:03.762Z,99602.52
2022-09-30T11:58:39.324Z,99598.88
2022-09-30T11:59:28.977Z,99605.72
2022-09-30T12:00:35.075Z,99597.23
2022-09-30T12:01:44.469Z,99607.23
2022-09-30T12:02:53.210Z,99605.80
2022-09-30T12:04:25.086Z,99612.22
2022-09-30T12:07:02.544Z,99600.95
2022-09-30T12:08:09.209Z,99599.41
2022-09-30T12:09:26.727Z,99602.03
2022-09-30T12:10:32.488Z,99602.52
2022-09-30T12:11:41.076Z,99604.81
2022-09-30T12:12:45.544Z,99604.31
2022-09-30T12:15:06.345Z,99604.33
2022-09-30T12:16:19.158Z,99601.68
2022-09-30T12:17:45.612Z,99600.91
2022-09-30T12:20:30.132Z,99604.17
2022-09-30T12:21:45.182Z,99612.82
2022-09-30T12:22:49.367Z,99612.66
2022-09-30T12:24:13.126Z,99611.88
2022-09-30T12:25:29.675Z,99616.37
2022-09-30T12:26:33.713Z,99612.50
2022-09-30T12:27:48.606Z,99604.86
2022-09-30T12:29:01.137Z,99608.12
2022-09-30T12:30:14.257Z,99612.89
2022-09-30T12:31:19.886Z,99607.88
2022-09-30T12:32:25.936Z,99610.84
2022-09-30T12:33:40.795Z,99608.20
2022-09-30T12:35:15.080Z,99605.99
2022-09-30T12:36:20.894Z,99607.13
2022-09-30T12:37:35.480Z,99607.89
2022-09-30T12:38:55.904Z,99612.20
2022-09-30T12:40:22.900Z,99609.56
2022-09-30T12:41:44.403Z,99615.02
2022-09-30T12:43:05.624Z,99610.31
2022-09-30T12:46:03.346Z,99611.94
2022-09-30T12:49:12.879Z,99602.03
2022-09-30T12:50:26.502Z,99606.53
2022-09-30T12:51:32.151Z,99615.17
2022-09-30T12:52:37.176Z,99611.94
2022-09-30T12:53:41.752Z,99610.21
2022-09-30T12:56:14.055Z,99611.13
2022-09-30T12:57:20.662Z,99615.30
2022-09-30T12:58:32.414Z,99617.82
2022-09-30T12:59:38.173Z,99622.80
2022-09-30T13:00:40.225Z,99617.22
2022-09-30T13:01:43.350Z,99623.88
2022-09-30T13:02:55.015Z,99623.88
2022-09-30T13:04:00.772Z,99618.20
2022-09-30T13:05:32.477Z,99616.38
2022-09-30T13:06:51.534Z,99618.64
2022-09-30T13:08:09.218Z,99621.83
2022-09-30T13:09:17.879Z,99626.38
2022-09-30T13:10:29.634Z,99623.31
2022-09-30T13:11:57.398Z,99617.41
2022-09-30T13:13:13.306Z,99620.75
2022-09-30T13:14:36.622Z,99625.27
2022-09-30T13:15:46.335Z,99631.45
2022-09-30T13:17:10.489Z,99628.42
2022-09-30T13:18:25.167Z,99633.77
2022-09-30T13:19:49.944Z,99625.88
2022-09-30T13:20:58.040Z,99626.85
2022-09-30T13:22:22.739Z,99631.84
2022-09-30T13:23:46.011Z,99619.29
2022-09-30T13:25:02.435Z,99625.08
2022-09-30T13:26:33.208Z,99618.30
2022-09-30T13:27:46.204Z,99625.68
2022-09-30T13:28:49.498Z,99623.78
2022-09-30T13:29:51.463Z,99632.14
2022-09-30T13:31:12.639Z,99631.83
2022-09-30T13:32:18.495Z,99631.61
2022-09-30T13:33:30.379Z,99628.33
2022-09-30T13:34:34.811Z,99632.53
2022-09-30T13:35:50.379Z,99633.41
2022-09-30T13:37:02.711Z,99630.66
2022-09-30T13:38:16.905Z,99637.40
2022-09-30T13:39:40.184Z,99629.19
2022-09-30T13:41:07.247Z,99626.54
2022-09-30T13:43:05.883Z,99628.31
2022-09-30T13:44:10.838Z,99633.72
2022-09-30T13:45:19.397Z,99631.45
2022-09-30T13:46:31.576Z,99628.95